Beja International Airport Beja PT
ICAO: LPBJ
IATA: BYJ
Category: Medium
Scheduled Services: No

Elevation: 636 ft
TransAlt. 3500 ft.

Airport Communications:
APP:130.1
GND:23.4
TWR:130.4

LPBJ Zoom In..

Runways:

(A) RW 01L length 11319 ft width 197 ft
---- / hdg 9

(B) RW 01R length 11319 ft width 98 ft
---- / hdg 9

(C) RW 19L length 11319 ft width 98 ft
---- / hdg 189

(D) RW 19R length 11319 ft width 197 ft
ILS 110.30 / hdg 189

Location; LPBJ
Day. 14 / Time. 14.00 Zulu
* QNH: 1017
* Temperature: 29° c. 84.2°f.
* Wind from: VRB° Speed 05 kn.
Dewpoint: 12° c.
Visibility: 10 km or more,
No clouds below 1,500 m.
No cumulonimbus, and no significant weather
fenomena in the aerodrome or its vicinity.

LPBJ 141400Z VRB05KT CAVOK 29/12 Q1017


Wind From VRB°
Speed 05 kn.

 
 
jpsmedia.com for Web Design worldairports.se 2018   terms of use